createdAt,value
2022-08-07T00:01:44.631Z,20.50
2022-08-07T00:04:15.516Z,20.47
2022-08-07T00:06:51.562Z,20.49
2022-08-07T00:09:20.853Z,20.48
2022-08-07T00:11:55.615Z,20.46
2022-08-07T00:14:29.995Z,20.48
2022-08-07T00:16:59.179Z,20.47
2022-08-07T00:19:34.070Z,20.46
2022-08-07T00:22:34.487Z,20.45
2022-08-07T00:25:04.595Z,20.44
2022-08-07T00:27:52.913Z,20.44
2022-08-07T00:30:27.075Z,20.44
2022-08-07T00:32:56.339Z,20.45
2022-08-07T00:35:25.127Z,20.41
2022-08-07T00:37:52.985Z,20.43
2022-08-07T00:40:39.111Z,20.42
2022-08-07T00:43:59.339Z,20.40
2022-08-07T00:46:01.847Z,20.39
2022-08-07T00:48:31.063Z,20.39
2022-08-07T00:51:00.874Z,20.39
2022-08-07T00:53:39.053Z,20.39
2022-08-07T00:56:17.160Z,20.39
2022-08-07T00:58:47.167Z,20.37
2022-08-07T01:01:18.327Z,20.37
2022-08-07T01:03:56.552Z,20.38
2022-08-07T01:06:29.109Z,20.37
2022-08-07T01:08:58.381Z,20.37
2022-08-07T01:12:23.578Z,20.37
2022-08-07T01:14:17.051Z,20.35
2022-08-07T01:16:49.326Z,20.36
2022-08-07T01:19:19.953Z,20.35
2022-08-07T01:21:53.314Z,20.35
2022-08-07T01:24:26.673Z,20.34
2022-08-07T01:26:54.744Z,20.34
2022-08-07T01:29:27.909Z,20.35
2022-08-07T01:32:00.754Z,20.33
2022-08-07T01:34:33.591Z,20.32
2022-08-07T01:37:09.685Z,20.33
2022-08-07T01:39:39.503Z,20.33
2022-08-07T01:42:38.186Z,20.32
2022-08-07T01:45:03.895Z,20.32
2022-08-07T01:48:18.138Z,20.32
2022-08-07T01:50:29.002Z,20.31
2022-08-07T01:53:00.099Z,20.31
2022-08-07T01:55:29.358Z,20.30
2022-08-07T01:58:06.631Z,20.29
2022-08-07T02:00:51.627Z,20.27
2022-08-07T02:03:32.128Z,20.27
2022-08-07T02:06:31.604Z,20.27
2022-08-07T02:09:05.258Z,20.28
2022-08-07T02:12:03.887Z,20.27
2022-08-07T02:14:36.178Z,20.27
2022-08-07T02:17:06.267Z,20.25
2022-08-07T02:20:04.937Z,20.24
2022-08-07T02:22:25.959Z,20.25
2022-08-07T02:24:55.824Z,20.25
2022-08-07T02:27:24.136Z,20.22
2022-08-07T02:29:54.528Z,20.23
2022-08-07T02:32:27.021Z,20.23
2022-08-07T02:34:58.231Z,20.21
2022-08-07T02:37:28.419Z,20.22
2022-08-07T02:40:29.818Z,20.20
2022-08-07T02:42:58.050Z,20.18
2022-08-07T02:45:58.164Z,20.17
2022-08-07T02:48:15.509Z,20.18
2022-08-07T02:50:46.038Z,20.17
2022-08-07T02:53:15.901Z,20.18
2022-08-07T02:56:03.934Z,20.15
2022-08-07T02:58:35.113Z,20.16
2022-08-07T03:01:05.410Z,20.16
2022-08-07T03:03:49.844Z,20.15
2022-08-07T03:06:32.703Z,20.16
2022-08-07T03:09:02.770Z,20.14
2022-08-07T03:11:32.934Z,20.14
2022-08-07T03:14:06.938Z,20.13
2022-08-07T03:16:34.903Z,20.13
2022-08-07T03:19:03.468Z,20.12
2022-08-07T03:21:33.526Z,20.11
2022-08-07T03:24:20.228Z,20.11
2022-08-07T03:26:58.859Z,20.10
2022-08-07T03:29:29.887Z,20.09
2022-08-07T03:31:57.974Z,20.10
2022-08-07T03:34:27.616Z,20.08
2022-08-07T03:36:59.909Z,20.06
2022-08-07T03:39:45.808Z,20.05
2022-08-07T03:42:30.031Z,20.06
2022-08-07T03:44:58.271Z,20.07
2022-08-07T03:47:47.602Z,20.05
2022-08-07T03:50:17.573Z,20.02
2022-08-07T03:52:50.935Z,20.05
2022-08-07T03:55:19.136Z,20.02
2022-08-07T03:58:34.531Z,20.03
2022-08-07T04:00:39.351Z,20.02
2022-08-07T04:03:16.275Z,20.02
2022-08-07T04:05:45.814Z,20.02
2022-08-07T04:08:20.974Z,19.99
2022-08-07T04:10:54.058Z,19.99
2022-08-07T04:14:10.927Z,20.00
2022-08-07T04:16:32.691Z,19.99
2022-08-07T04:19:14.671Z,19.97
2022-08-07T04:22:04.898Z,19.96
2022-08-07T04:24:41.289Z,19.98
2022-08-07T04:27:20.240Z,19.95
2022-08-07T04:30:01.926Z,19.93
2022-08-07T04:32:48.967Z,19.94
2022-08-07T04:35:28.687Z,19.94
2022-08-07T04:38:07.990Z,19.94
2022-08-07T04:40:52.027Z,19.94
2022-08-07T04:44:12.905Z,19.93
2022-08-07T04:46:35.873Z,19.92
2022-08-07T04:49:17.843Z,19.94
2022-08-07T04:51:52.021Z,19.92
2022-08-07T04:54:22.899Z,19.90
2022-08-07T04:58:12.486Z,19.91
2022-08-07T05:00:14.159Z,19.93
2022-08-07T05:02:43.521Z,19.92
2022-08-07T05:05:53.799Z,19.91
2022-08-07T05:08:04.504Z,19.91
2022-08-07T05:10:35.130Z,19.91
2022-08-07T05:13:10.063Z,19.91
2022-08-07T05:15:53.855Z,19.91
2022-08-07T05:18:27.334Z,19.93
2022-08-07T05:21:05.848Z,19.92
2022-08-07T05:23:37.537Z,19.92
2022-08-07T05:26:13.822Z,19.92
2022-08-07T05:28:50.453Z,19.92
2022-08-07T05:31:23.509Z,19.91
2022-08-07T05:34:04.311Z,19.92
2022-08-07T05:36:36.047Z,19.92
2022-08-07T05:40:05.842Z,19.91
2022-08-07T05:42:06.343Z,19.93
2022-08-07T05:44:41.552Z,19.92
2022-08-07T05:47:21.372Z,19.93
2022-08-07T05:50:09.039Z,19.92
2022-08-07T05:52:37.959Z,19.93
2022-08-07T05:55:10.753Z,19.92
2022-08-07T05:57:42.526Z,19.94
2022-08-07T06:00:16.531Z,19.93
2022-08-07T06:02:51.880Z,19.96
2022-08-07T06:05:28.175Z,19.94
2022-08-07T06:08:13.235Z,19.96
2022-08-07T06:10:51.210Z,19.99
2022-08-07T06:13:20.876Z,19.97
2022-08-07T06:16:10.196Z,19.98
2022-08-07T06:18:43.144Z,19.97
2022-08-07T06:22:16.519Z,19.98
2022-08-07T06:24:45.945Z,20.00
2022-08-07T06:26:58.404Z,20.01
2022-08-07T06:29:31.536Z,20.00
2022-08-07T06:31:59.860Z,20.03
2022-08-07T06:34:30.508Z,20.02
2022-08-07T06:37:02.589Z,20.03
2022-08-07T06:40:13.411Z,20.03
2022-08-07T06:42:33.144Z,20.05
2022-08-07T06:45:12.481Z,20.04
2022-08-07T06:47:57.807Z,20.05
2022-08-07T06:50:30.675Z,20.06
2022-08-07T06:53:04.188Z,20.05
2022-08-07T06:55:54.137Z,20.06
2022-08-07T06:58:24.525Z,20.07
2022-08-07T07:01:03.508Z,20.08
2022-08-07T07:03:47.591Z,20.07
2022-08-07T07:06:26.068Z,20.08
2022-08-07T07:08:58.144Z,20.07
2022-08-07T07:12:10.788Z,20.10
2022-08-07T07:14:14.341Z,20.10
2022-08-07T07:16:49.683Z,20.12
2022-08-07T07:19:55.463Z,20.10
2022-08-07T07:22:33.785Z,20.14
2022-08-07T07:25:14.240Z,20.12
2022-08-07T07:27:56.167Z,20.12
2022-08-07T07:30:38.616Z,20.13
2022-08-07T07:33:11.443Z,20.14
2022-08-07T07:35:44.025Z,20.14
2022-08-07T07:38:24.344Z,20.15
2022-08-07T07:40:57.652Z,20.15
2022-08-07T07:44:14.344Z,20.16
2022-08-07T07:46:53.525Z,20.15
2022-08-07T07:49:09.122Z,20.16
2022-08-07T07:51:58.232Z,20.17
2022-08-07T07:54:27.719Z,20.18
2022-08-07T07:56:57.500Z,20.17
2022-08-07T07:59:52.732Z,20.19
2022-08-07T08:02:33.934Z,20.20
2022-08-07T08:05:01.235Z,20.21
2022-08-07T08:07:35.773Z,20.21
2022-08-07T08:10:10.839Z,20.22
2022-08-07T08:12:52.176Z,20.23
2022-08-07T08:15:26.930Z,20.23
2022-08-07T08:18:18.393Z,20.22
2022-08-07T08:20:47.962Z,20.23
2022-08-07T08:23:34.801Z,20.24
2022-08-07T08:26:23.369Z,20.24
2022-08-07T08:28:54.665Z,20.24
2022-08-07T08:31:30.399Z,20.25
2022-08-07T08:34:12.474Z,20.25
2022-08-07T08:36:49.398Z,20.25
2022-08-07T08:39:25.711Z,20.26
2022-08-07T08:42:09.259Z,20.26
2022-08-07T08:44:44.670Z,20.25
2022-08-07T08:47:17.434Z,20.28
2022-08-07T08:50:02.715Z,20.28
2022-08-07T08:52:36.100Z,20.28
2022-08-07T08:55:07.716Z,20.29
2022-08-07T08:57:36.843Z,20.29
2022-08-07T09:00:08.428Z,20.30
2022-08-07T09:02:39.048Z,20.29
2022-08-07T09:05:14.767Z,20.30
2022-08-07T09:07:46.149Z,20.29
2022-08-07T09:10:27.424Z,20.29
2022-08-07T09:12:58.471Z,20.30
2022-08-07T09:16:20.695Z,20.32
2022-08-07T09:18:25.785Z,20.33
2022-08-07T09:21:01.919Z,20.33
2022-08-07T09:24:30.793Z,20.34
2022-08-07T09:26:25.612Z,20.34
2022-08-07T09:30:05.875Z,20.36
2022-08-07T09:31:48.616Z,20.34
2022-08-07T09:34:21.842Z,20.35
2022-08-07T09:36:57.191Z,20.35
2022-08-07T09:39:55.212Z,20.35
2022-08-07T09:42:25.043Z,20.36
2022-08-07T09:47:24.823Z,20.36
2022-08-07T09:47:59.590Z,20.37
2022-08-07T09:50:32.903Z,20.37
2022-08-07T09:53:02.265Z,20.37
2022-08-07T09:56:03.467Z,20.38
2022-08-07T09:58:32.389Z,20.39
2022-08-07T10:01:08.412Z,20.37
2022-08-07T10:04:14.224Z,20.38
2022-08-07T10:07:01.928Z,20.39
2022-08-07T10:10:00.229Z,20.39
2022-08-07T10:12:39.817Z,20.39
2022-08-07T10:15:26.178Z,20.40
2022-08-07T10:18:09.629Z,20.40
2022-08-07T10:20:44.617Z,20.41
2022-08-07T10:24:05.694Z,20.41
2022-08-07T10:26:17.701Z,20.41
2022-08-07T10:28:56.812Z,20.41
2022-08-07T10:31:45.215Z,20.41
2022-08-07T10:34:27.076Z,20.41
2022-08-07T10:37:05.574Z,20.42
2022-08-07T10:40:03.106Z,20.41
2022-08-07T10:42:37.277Z,20.42
2022-08-07T10:45:11.122Z,20.42
2022-08-07T10:47:51.594Z,20.42
2022-08-07T10:50:25.759Z,20.43
2022-08-07T10:53:08.344Z,20.43
2022-08-07T10:55:45.457Z,20.43
2022-08-07T10:58:17.134Z,20.43
2022-08-07T11:00:50.562Z,20.43
2022-08-07T11:03:28.207Z,20.44
2022-08-07T11:06:08.509Z,20.44
2022-08-07T11:08:41.391Z,20.44
2022-08-07T11:11:10.318Z,20.43
2022-08-07T11:14:44.470Z,20.45
2022-08-07T11:16:30.586Z,20.44
2022-08-07T11:19:00.247Z,20.44
2022-08-07T11:21:31.924Z,20.44
2022-08-07T11:24:03.384Z,20.45
2022-08-07T11:26:33.273Z,20.45
2022-08-07T11:29:13.163Z,20.45
2022-08-07T11:32:02.554Z,20.45
2022-08-07T11:34:32.800Z,20.45
2022-08-07T11:37:04.995Z,20.45
2022-08-07T11:40:00.178Z,20.46
2022-08-07T11:42:33.656Z,20.45
2022-08-07T11:45:08.229Z,20.46
2022-08-07T11:47:56.606Z,20.46
2022-08-07T11:50:33.164Z,20.47
2022-08-07T11:53:05.834Z,20.47
2022-08-07T11:56:09.619Z,20.47
2022-08-07T11:58:35.376Z,20.47
2022-08-07T12:01:11.509Z,20.46
2022-08-07T12:03:55.368Z,20.47
2022-08-07T12:06:38.981Z,20.48
2022-08-07T12:09:09.605Z,20.47
2022-08-07T12:12:09.764Z,20.48
2022-08-07T12:14:37.316Z,20.48
2022-08-07T12:17:06.713Z,20.48
2022-08-07T12:20:02.741Z,20.48
2022-08-07T12:22:39.149Z,20.49
2022-08-07T12:26:05.583Z,20.49
2022-08-07T12:28:31.019Z,20.49
2022-08-07T12:31:00.875Z,20.49
2022-08-07T12:34:00.611Z,20.50
2022-08-07T12:36:19.956Z,20.48
2022-08-07T12:39:03.342Z,20.50
2022-08-07T12:41:52.178Z,20.50
2022-08-07T12:44:21.882Z,20.50
2022-08-07T12:47:08.084Z,20.49
2022-08-07T12:49:48.567Z,20.50
2022-08-07T12:52:23.118Z,20.49
2022-08-07T12:54:59.051Z,20.51
2022-08-07T12:57:39.307Z,20.51
2022-08-07T13:00:32.797Z,20.51
2022-08-07T13:03:27.071Z,20.51
2022-08-07T13:06:16.874Z,20.51
2022-08-07T13:08:52.787Z,20.52
2022-08-07T13:11:27.341Z,20.51
2022-08-07T13:13:57.702Z,20.50
2022-08-07T13:16:31.195Z,20.51
2022-08-07T13:19:02.757Z,20.51
2022-08-07T13:21:50.504Z,20.52
2022-08-07T13:24:21.122Z,20.52
2022-08-07T13:26:55.689Z,20.52
2022-08-07T13:29:25.568Z,20.52
2022-08-07T13:32:06.238Z,20.52
2022-08-07T13:34:48.599Z,20.52
2022-08-07T13:37:21.741Z,20.52
2022-08-07T13:40:33.098Z,20.53
2022-08-07T13:42:40.355Z,20.53
2022-08-07T13:46:06.233Z,20.53
2022-08-07T13:48:06.093Z,20.53
2022-08-07T13:50:44.521Z,20.53
2022-08-07T13:53:24.169Z,20.55
2022-08-07T13:55:54.727Z,20.54
2022-08-07T13:58:42.055Z,20.53
2022-08-07T14:01:24.788Z,20.55
2022-08-07T14:04:07.236Z,20.53
2022-08-07T14:06:36.678Z,20.55
2022-08-07T14:09:07.178Z,20.55
2022-08-07T14:11:53.630Z,20.56
2022-08-07T14:14:28.412Z,20.55
2022-08-07T14:16:59.993Z,20.55
2022-08-07T14:20:41.229Z,20.55
2022-08-07T14:22:38.148Z,20.56
2022-08-07T14:25:08.623Z,20.56
2022-08-07T14:28:10.895Z,20.56
2022-08-07T14:33:15.599Z,20.56
2022-08-07T14:35:55.691Z,20.56
2022-08-07T14:38:30.919Z,20.56
2022-08-07T14:41:04.122Z,20.56
2022-08-07T14:43:57.646Z,20.56
2022-08-07T14:49:17.427Z,20.57
2022-08-07T14:52:04.913Z,20.57
2022-08-07T14:54:42.851Z,20.57
2022-08-07T14:57:18.860Z,20.57
2022-08-07T15:00:05.821Z,20.58
2022-08-07T15:02:35.206Z,20.57
2022-08-07T15:05:20.493Z,20.57
2022-08-07T15:10:58.696Z,20.58
2022-08-07T15:13:35.865Z,20.58
2022-08-07T15:16:11.477Z,20.58
2022-08-07T15:18:40.126Z,20.59
2022-08-07T15:21:58.428Z,20.59
2022-08-07T15:25:15.837Z,20.58
2022-08-07T15:27:01.176Z,20.59
2022-08-07T15:35:08.646Z,20.59
2022-08-07T15:38:17.336Z,20.59
2022-08-07T15:40:34.563Z,20.59
2022-08-07T15:46:32.129Z,20.59
2022-08-07T15:49:03.725Z,20.59
2022-08-07T15:54:27.048Z,20.59
2022-08-07T15:56:57.282Z,20.59
2022-08-07T15:59:39.736Z,20.61
2022-08-07T16:02:15.194Z,20.60
2022-08-07T16:04:44.062Z,20.60
2022-08-07T16:08:32.439Z,20.61
2022-08-07T16:10:02.862Z,20.61
2022-08-07T16:12:34.985Z,20.60
2022-08-07T16:15:10.266Z,20.60
2022-08-07T16:18:01.697Z,20.60
2022-08-07T16:20:43.044Z,20.62
2022-08-07T16:23:53.518Z,20.60
2022-08-07T16:26:16.401Z,20.60
2022-08-07T16:30:06.346Z,20.61
2022-08-07T16:31:58.288Z,20.62
2022-08-07T16:34:28.444Z,20.61
2022-08-07T16:38:03.357Z,20.62
2022-08-07T16:40:05.185Z,20.61
2022-08-07T16:42:36.501Z,20.62
2022-08-07T16:45:15.557Z,20.62
2022-08-07T16:48:28.467Z,20.62
2022-08-07T16:51:21.620Z,20.62
2022-08-07T16:54:19.035Z,20.63
2022-08-07T16:56:57.260Z,20.62
2022-08-07T16:59:45.786Z,20.62
2022-08-07T17:02:51.164Z,20.62
2022-08-07T17:06:02.060Z,20.62
2022-08-07T17:08:20.923Z,20.64
2022-08-07T17:10:55.628Z,20.61
2022-08-07T17:13:41.898Z,20.62
2022-08-07T17:16:24.894Z,20.62
2022-08-07T17:19:01.337Z,20.62
2022-08-07T17:21:50.669Z,20.63
2022-08-07T17:24:28.039Z,20.64
2022-08-07T17:26:56.715Z,20.63
2022-08-07T17:30:16.083Z,20.63
2022-08-07T17:32:30.919Z,20.64
2022-08-07T17:35:51.679Z,20.64
2022-08-07T17:38:08.173Z,20.64
2022-08-07T17:40:50.392Z,20.64
2022-08-07T17:43:20.024Z,20.65
2022-08-07T17:46:11.388Z,20.64
2022-08-07T17:48:41.036Z,20.64
2022-08-07T17:51:11.587Z,20.64
2022-08-07T17:54:00.934Z,20.63
2022-08-07T17:56:30.745Z,20.64
2022-08-07T17:59:00.732Z,20.65
2022-08-07T18:01:36.843Z,20.65
2022-08-07T18:04:16.513Z,20.65
2022-08-07T18:06:47.305Z,20.64
2022-08-07T18:10:05.077Z,20.65
2022-08-07T18:12:28.650Z,20.65
2022-08-07T18:15:00.883Z,20.66
2022-08-07T18:18:47.682Z,20.65
2022-08-07T18:21:03.599Z,20.66
2022-08-07T18:23:41.872Z,20.65
2022-08-07T18:26:00.993Z,20.66
2022-08-07T18:28:34.385Z,20.65
2022-08-07T18:31:09.240Z,20.65
2022-08-07T18:33:56.003Z,20.65
2022-08-07T18:36:33.274Z,20.65
2022-08-07T18:40:08.670Z,20.67
2022-08-07T18:41:56.326Z,20.65
2022-08-07T18:44:31.535Z,20.65
2022-08-07T18:47:02.377Z,20.65
2022-08-07T18:50:31.879Z,20.66
2022-08-07T18:52:52.754Z,20.66
2022-08-07T18:55:41.056Z,20.66
2022-08-07T18:58:29.764Z,20.66
2022-08-07T19:01:07.367Z,20.66
2022-08-07T19:03:59.119Z,20.66
2022-08-07T19:06:33.693Z,20.66
2022-08-07T19:09:09.292Z,20.66
2022-08-07T19:12:05.663Z,20.66
2022-08-07T19:15:00.789Z,20.67
2022-08-07T19:18:01.512Z,20.67
2022-08-07T19:20:28.895Z,20.67
2022-08-07T19:23:03.259Z,20.67
2022-08-07T19:26:22.769Z,20.67
2022-08-07T19:30:55.162Z,20.67
2022-08-07T19:31:37.385Z,20.67
2022-08-07T19:34:14.819Z,20.66
2022-08-07T19:37:10.423Z,20.67
2022-08-07T19:39:57.251Z,20.67
2022-08-07T19:42:30.268Z,20.67
2022-08-07T19:45:00.674Z,20.68
2022-08-07T19:47:38.256Z,20.69
2022-08-07T19:50:41.499Z,20.67
2022-08-07T19:53:00.981Z,20.69
2022-08-07T19:55:46.812Z,20.68
2022-08-07T19:58:28.000Z,20.68
2022-08-07T20:00:57.235Z,20.68
2022-08-07T20:03:33.642Z,20.67
2022-08-07T20:06:06.033Z,20.68
2022-08-07T20:08:34.566Z,20.68
2022-08-07T20:11:03.931Z,20.69
2022-08-07T20:13:43.224Z,20.69
2022-08-07T20:16:15.980Z,20.68
2022-08-07T20:18:59.072Z,20.69
2022-08-07T20:21:29.120Z,20.69
2022-08-07T20:24:15.040Z,20.69
2022-08-07T20:26:50.054Z,20.69
2022-08-07T20:29:47.873Z,20.69
2022-08-07T20:32:23.102Z,20.69
2022-08-07T20:34:55.017Z,20.69
2022-08-07T20:37:25.380Z,20.69
2022-08-07T20:40:03.265Z,20.69
2022-08-07T20:42:33.333Z,20.69
2022-08-07T20:45:01.372Z,20.70
2022-08-07T20:47:55.434Z,20.70
2022-08-07T20:50:20.247Z,20.69
2022-08-07T20:52:51.061Z,20.69
2022-08-07T20:55:23.834Z,20.69
2022-08-07T20:58:03.743Z,20.70
2022-08-07T21:00:42.629Z,20.69
2022-08-07T21:03:11.943Z,20.69
2022-08-07T21:05:50.811Z,20.69
2022-08-07T21:08:37.297Z,20.69
2022-08-07T21:11:07.469Z,20.69
2022-08-07T21:13:57.190Z,20.69
2022-08-07T21:16:29.281Z,20.69
2022-08-07T21:18:57.371Z,20.70
2022-08-07T21:21:27.826Z,20.70
2022-08-07T21:23:59.898Z,20.69
2022-08-07T21:26:30.795Z,20.69
2022-08-07T21:29:02.190Z,20.69
2022-08-07T21:32:10.857Z,20.69
2022-08-07T21:34:31.624Z,20.69
2022-08-07T21:37:01.366Z,20.69
2022-08-07T21:39:48.200Z,20.69
2022-08-07T21:42:41.703Z,20.70
2022-08-07T21:46:05.256Z,20.70
2022-08-07T21:47:59.831Z,20.69
2022-08-07T21:50:32.710Z,20.69
2022-08-07T21:53:07.658Z,20.69
2022-08-07T21:55:42.332Z,20.70
2022-08-07T21:58:12.161Z,20.69
2022-08-07T22:00:41.247Z,20.69
2022-08-07T22:03:11.139Z,20.70
2022-08-07T22:05:49.806Z,20.70
2022-08-07T22:08:18.664Z,20.70
2022-08-07T22:10:49.671Z,20.70
2022-08-07T22:13:24.643Z,20.68
2022-08-07T22:16:39.066Z,20.70
2022-08-07T22:18:56.999Z,20.69
2022-08-07T22:22:05.410Z,20.69
2022-08-07T22:24:16.237Z,20.69
2022-08-07T22:26:46.486Z,20.69
2022-08-07T22:29:16.708Z,20.70
2022-08-07T22:32:05.496Z,20.70
2022-08-07T22:34:37.108Z,20.69
2022-08-07T22:37:09.665Z,20.69
2022-08-07T22:39:52.550Z,20.69
2022-08-07T22:42:25.994Z,20.68
2022-08-07T22:44:59.755Z,20.69
2022-08-07T22:47:34.018Z,20.69
2022-08-07T22:50:11.121Z,20.69
2022-08-07T22:52:59.949Z,20.68
2022-08-07T22:55:30.765Z,20.68
2022-08-07T22:58:03.798Z,20.70
2022-08-07T23:00:33.448Z,20.69
2022-08-07T23:03:04.208Z,20.70
2022-08-07T23:06:07.730Z,20.69
2022-08-07T23:08:47.936Z,20.69
2022-08-07T23:11:25.779Z,20.69
2022-08-07T23:14:15.501Z,20.70
2022-08-07T23:16:54.685Z,20.69
2022-08-07T23:19:51.401Z,20.70
2022-08-07T23:22:24.002Z,20.69
2022-08-07T23:24:55.682Z,20.69
2022-08-07T23:27:33.952Z,20.69
2022-08-07T23:30:39.126Z,20.69
2022-08-07T23:34:23.925Z,20.69
2022-08-07T23:36:03.758Z,20.69
2022-08-07T23:38:47.061Z,20.70
2022-08-07T23:41:33.426Z,20.69
2022-08-07T23:44:29.622Z,20.68
2022-08-07T23:47:10.967Z,20.68
2022-08-07T23:49:50.423Z,20.68
2022-08-07T23:53:00.816Z,20.68
2022-08-07T23:55:09.665Z,20.69
2022-08-07T23:57:37.736Z,20.69
